Nederweert, Netherlands
Current Conditions -  °F | °C
As of 4:25 AM on Saturday 20 Dec 2014 (Local Time) from EBBL Reporting Station
Clear Clear  
Wind Chill: 33°   Ceiling: Unl
Heat Index: 41°   Visibility: 6mi
Dew Point: 36°   Wind: 15mph
Humidity: 81%   Direction: 240°WSW
Pressure: 30.15"   Gusts: NA
Location:  51.29°N, 5.75°E
Report Text: EBBL 200325Z 24013KT 9999 SKC 05/02 Q1021 BLU
Loading
Personal Weather Stations






























Interactive Weather Map New forecast layout! Learn more

10-Day Weather Forecast

Advertisements
Track Severe Weather on mobile